Moores Mill, Mississippi
Current Conditions -  °F | °C
As of 6:15 PM on Saturday 20 Dec 2014 (Local Time) from KCRX Reporting Station
Clear Clear  
Wind Chill: 39°   Ceiling: Unl
Heat Index: 43°   Visibility: 10mi
Dew Point: 32°   Wind: 6mph
Humidity: 66%   Direction: 30°NNE
Pressure: 30.22"   Gusts: NA
Location:  34.5651°N, 88.1896°W
Report Text: KCRX 210015Z AUTO 03005KT 10SM CLR 06/M00 A3022 RMK AO2
Loading
Personal Weather Stations






























Interactive Weather Map New forecast layout! Learn more

10-Day Weather Forecast

Advertisements
Track Severe Weather on mobile